SBRFFNLU

Guest
Details From SBRF - Recife Intl
To FNLU - Luanda 4 De Fevereiro
Flight Number -
Tags Generated
Created
Modified
Stats Distance 2,861 nm / 5,299 km
Max Altitude 0 ft / 0 m
Waypoints 3
Social Downloads 5
Likes 0
Share VATSIM

Download

Looking for another format? Having issues loading an existing format? Contact us
Advertisement - Login to hide

Notes

Generated

Route

SBRF VNA FNLU

ID Type Via Altitude Latitude Longitude Leg Dist Tot Dist Heading (true) Name
O SBRF APT - 0 ft / 0 m -8.12516˚ -34.92862˚ - 0 nm - -
VNA VOR - 0 ft / 0 m -8.84548˚ 13.24748˚ 2859 nm 2859 nm 95° / 87° LUANDA VOR-DME
O FNLU APT - 0 ft / 0 m -8.85561˚ 13.22570˚ 1 nm 2861 nm 245° / 245° LUANDA 4 DE FEVEREIRO

Altitude Profile

Advertisement - Login to hide

Weather


0- 5 10 15 20 25 30 35+ Temperature / ° C

Clouds and Precipitation
Forecast for 2017-12-16 18:00 UTC. Updated an hour ago

Ground ~20,000 ft ~40,000 ft Winds

SBRF

Details ICAO SBRF (REC)
Name Recife Intl
Region Brazil
Timezone America/Recife (UTC-3.0)
Stats Elevation 33 ft / 10 m (AMSL)
Location -8.127896° -34.922981°
Runways 2
Magnetic Variation 22.088° W

METAR

SBRF 161600Z 10010KT 9999 SCT023 29/23 Q1013

Decode

TAF

TAF SBRF 161000Z 1612/1712 11008KT 9999 SCT020 TX30/1615Z TN25/1708Z RMK PEI

Decode

Departure Runways

ID Width Length Bearing (true) Bearing (mag) Surface Threshold Offset Overrun Length
01 98 ft / 30 m 4,979 ft / 1,518 m 304.20° 326.29° Asphalt 300 ft / 91 m 0 ft / 0 m
18 148 ft / 45 m 9,915 ft / 3,022 m 161.91° 184.00° Asphalt 1,225 ft / 373 m 0 ft / 0 m
19 98 ft / 30 m 4,979 ft / 1,518 m 124.20° 146.29° Asphalt 300 ft / 91 m 0 ft / 0 m
36 148 ft / 45 m 9,915 ft / 3,022 m 341.91° 4.00° Asphalt 0 ft / 0 m 350 ft / 107 m

FNLU

Details ICAO FNLU (LAD)
Name LUANDA 4 DE FEVEREIRO
Region Angola
Timezone Africa/Luanda (UTC+1.0)
Stats Elevation 243 ft / 74 m (AMSL)
Location -8.858377° 13.231178°
Runways 2
Magnetic Variation 3.482° W

METAR

FNLU 161600Z 23011KT 9999 BKN023 28/21 Q1007 NOSIG

Decode

TAF

TAF FNLU 161045Z 1612/1718 29009KT 9999 SCT022 TEMPO 1614/1618 23008KT SCT020 BKN050 BECMG 1700/1702 17006KT 9000 BKN020 TEMPO 1703/1707 VRB03KT 8000 FEW018 BKN025

Decode

Destination Runways

ID Width Length Bearing (true) Bearing (mag) Surface Threshold Offset Overrun Length
05 148 ft / 45 m 12,153 ft / 3,704 m 46.63° 50.11° Asphalt 0 ft / 0 m 0 ft / 0 m
07 197 ft / 60 m 8,176 ft / 2,492 m 67.40° 70.88° Asphalt 0 ft / 0 m 176 ft / 54 m
23 148 ft / 45 m 12,153 ft / 3,704 m 226.62° 230.10° Asphalt 500 ft / 152 m 0 ft / 0 m
25 197 ft / 60 m 8,176 ft / 2,492 m 247.40° 250.88° Asphalt 0 ft / 0 m 0 ft / 0 m

Approach Navaids

Runway Type Ident Frequency Range Bearing (true) Bearing (mag) Slope Elevation
23 Localiser ILD 110.30 MHz 18 nm / 33 km 226.62° 230.10° - 243 ft / 74 m (AMSL)
23 Glidescope ILD 110.30 MHz 10 nm / 19 km 226.62° 230.10° 3.00° 243 ft / 74 m (AMSL)
23 DME ILD 110.30 MHz 18 nm / 33 km - - - 243 ft / 74 m (AMSL)

Popular Alternatives